Cocoville, Louisiana
Current Conditions -  °F | °C
As of 11:53 PM on Wednesday 22 Oct 2014 (Local Time) from KESF Reporting Station
Clear Clear  
Wind Chill: 52°   Ceiling: Unl
Heat Index: 52°   Visibility: 10mi
Dew Point: 50°   Wind: 3mph
Humidity: 93%   Direction: 20°NNE
Pressure: 30.13"   Gusts: NA
Location:  31.0649°N, 92.0567°W
Report Text: KESF 230453Z AUTO 02003KT 10SM CLR 11/10 A3013 RMK AO2 SLP203 T01110100
Loading
Personal Weather Stations






























Interactive Weather Map
Tropical Storm Tracking
New forecast layout! Learn more

10-Day Weather Forecast

Advertisements
Track Severe Weather on mobile